Time,TemperatureF,DewpointF,PressureIn,WindDirection,WindDirectionDegrees,WindSpeedMPH,WindSpeedGustMPH,Humidity,HourlyPrecipIn,Conditions,Clouds,dailyrainin,SoftwareType,DateUTC
2013-02-09 00:01:00,43.0,24.0,29.92,WSW,250,9.0,20.0,46,0.00,,,0.00,,2013-02-09 07:01:00,
2013-02-09 00:11:00,43.0,24.0,29.92,WSW,250,9.0,20.0,46,0.00,,,0.00,,2013-02-09 07:11:00,
2013-02-09 00:21:00,42.0,21.0,29.92,WSW,240,11.0,19.0,43,0.00,,,0.00,,2013-02-09 07:21:00,
2013-02-09 00:31:00,42.0,22.0,29.91,SW,229,14.0,19.0,44,0.00,,,0.00,,2013-02-09 07:31:00,
2013-02-09 00:41:00,42.0,22.0,29.91,SW,229,14.0,19.0,44,0.00,,,0.00,,2013-02-09 07:41:00,
2013-02-09 00:52:00,42.0,22.0,29.91,WSW,238,13.0,19.0,45,0.00,,,0.00,,2013-02-09 07:52:00,
2013-02-09 01:01:00,41.0,22.0,29.92,SW,229,9.0,14.0,46,0.00,,,0.00,,2013-02-09 08:01:00,
2013-02-09 01:11:00,41.0,22.0,29.92,SW,229,9.0,14.0,46,0.00,,,0.00,,2013-02-09 08:11:00,
2013-02-09 01:21:00,41.0,22.0,29.91,WSW,242,11.0,15.0,47,0.00,,,0.00,,2013-02-09 08:21:00,
2013-02-09 01:31:00,41.0,23.0,29.91,SW,226,10.0,15.0,48,0.00,,,0.00,,2013-02-09 08:31:00,
2013-02-09 01:41:00,41.0,23.0,29.91,SW,226,10.0,15.0,48,0.00,,,0.00,,2013-02-09 08:41:00,
2013-02-09 01:52:00,40.0,23.0,29.91,SSW,203,10.0,15.0,50,0.00,,,0.00,,2013-02-09 08:52:00,
2013-02-09 02:02:00,40.0,23.0,29.91,West,269,11.0,16.0,50,0.00,,,0.00,,2013-02-09 09:02:00,
2013-02-09 02:11:00,40.0,23.0,29.91,West,269,11.0,16.0,50,0.00,,,0.00,,2013-02-09 09:11:00,
2013-02-09 02:21:00,40.0,23.0,29.91,NNE,30,9.0,14.0,51,0.00,,,0.00,,2013-02-09 09:21:00,
2013-02-09 02:31:00,40.0,24.0,29.91,SW,229,8.0,13.0,53,0.00,,,0.00,,2013-02-09 09:31:00,
2013-02-09 02:41:00,40.0,24.0,29.91,SW,229,8.0,13.0,53,0.00,,,0.00,,2013-02-09 09:41:00,
2013-02-09 02:52:00,40.0,25.0,29.90,SW,228,7.0,11.0,55,0.00,,,0.00,,2013-02-09 09:52:00,
2013-02-09 03:01:00,40.0,25.0,29.91,SW,232,7.0,11.0,55,0.00,,,0.00,,2013-02-09 10:01:00,
2013-02-09 03:11:00,40.0,25.0,29.91,SW,232,7.0,11.0,55,0.00,,,0.00,,2013-02-09 10:11:00,
2013-02-09 03:21:00,40.0,26.0,29.90,SW,229,11.0,20.0,57,0.00,,,0.00,,2013-02-09 10:21:00,
2013-02-09 03:31:00,40.0,26.0,29.90,WSW,256,12.0,20.0,58,0.00,,,0.00,,2013-02-09 10:31:00,
2013-02-09 03:41:00,40.0,26.0,29.90,WSW,256,12.0,20.0,58,0.00,,,0.00,,2013-02-09 10:41:00,
2013-02-09 03:52:00,40.0,27.0,29.89,SW,229,14.0,20.0,59,0.00,,,0.00,,2013-02-09 10:52:00,
2013-02-09 04:01:00,40.0,27.0,29.89,SW,224,14.0,19.0,59,0.00,,,0.00,,2013-02-09 11:01:00,
2013-02-09 04:11:00,40.0,27.0,29.89,SW,224,14.0,19.0,59,0.00,,,0.00,,2013-02-09 11:11:00,
2013-02-09 04:21:00,39.0,26.0,29.89,South,191,8.0,12.0,60,0.00,,,0.00,,2013-02-09 11:21:00,
2013-02-09 04:31:00,38.0,26.0,29.89,WSW,240,7.0,16.0,62,0.00,,,0.00,,2013-02-09 11:31:00,
2013-02-09 04:41:00,38.0,26.0,29.89,WSW,240,7.0,16.0,62,0.00,,,0.00,,2013-02-09 11:41:00,
2013-02-09 04:52:00,39.0,27.0,29.89,WSW,239,9.0,15.0,62,0.00,,,0.00,,2013-02-09 11:52:00,
2013-02-09 05:01:00,40.0,29.0,29.89,WSW,248,7.0,19.0,64,0.00,,,0.00,,2013-02-09 12:01:00,
2013-02-09 05:11:00,40.0,29.0,29.89,WSW,248,7.0,19.0,64,0.00,,,0.00,,2013-02-09 12:11:00,
2013-02-09 05:21:00,40.0,30.0,29.89,NNW,332,8.0,15.0,67,0.00,,,0.00,,2013-02-09 12:21:00,
2013-02-09 05:32:00,40.0,30.0,29.88,WSW,245,13.0,23.0,68,0.00,,,0.00,,2013-02-09 12:32:00,
2013-02-09 05:41:00,40.0,30.0,29.88,WSW,245,13.0,23.0,68,0.00,,,0.00,,2013-02-09 12:41:00,
2013-02-09 05:52:00,40.0,30.0,29.90,WSW,242,13.0,27.0,67,0.00,,,0.00,,2013-02-09 12:52:00,
2013-02-09 06:01:00,38.0,30.0,29.90,WSW,253,10.0,19.0,73,0.00,,,0.00,,2013-02-09 13:01:00,
2013-02-09 06:11:00,38.0,30.0,29.90,WSW,253,10.0,19.0,73,0.00,,,0.00,,2013-02-09 13:11:00,
2013-02-09 06:21:00,40.0,27.0,29.90,ESE,118,12.0,24.0,60,0.00,,,0.00,,2013-02-09 13:21:00,
2013-02-09 06:31:00,39.0,26.0,29.90,West,263,12.0,20.0,60,0.00,,,0.00,,2013-02-09 13:31:00,
2013-02-09 06:41:00,39.0,26.0,29.90,West,263,12.0,20.0,60,0.00,,,0.00,,2013-02-09 13:41:00,
2013-02-09 06:52:00,39.0,27.0,29.89,NW,316,14.0,24.0,63,0.00,,,0.00,,2013-02-09 13:52:00,
2013-02-09 07:01:00,39.0,28.0,29.89,ENE,63,14.0,21.0,64,0.00,,,0.00,,2013-02-09 14:01:00,
2013-02-09 07:11:00,39.0,28.0,29.89,ENE,63,14.0,21.0,64,0.00,,,0.00,,2013-02-09 14:11:00,
2013-02-09 07:21:00,39.0,29.0,29.90,West,259,13.0,20.0,67,0.00,,,0.00,,2013-02-09 14:21:00,
2013-02-09 07:31:00,34.0,30.0,29.91,WSW,245,14.0,24.0,86,0.00,,,0.00,,2013-02-09 14:31:00,
2013-02-09 07:41:00,34.0,30.0,29.91,WSW,245,14.0,24.0,86,0.00,,,0.00,,2013-02-09 14:41:00,
2013-02-09 07:52:00,31.0,29.0,29.93,WSW,243,17.0,27.0,92,0.00,,,0.00,,2013-02-09 14:52:00,
2013-02-09 08:01:00,31.0,29.0,29.93,SW,222,19.0,25.0,93,0.00,,,0.00,,2013-02-09 15:01:00,
2013-02-09 08:11:00,31.0,29.0,29.93,SW,222,19.0,25.0,93,0.00,,,0.00,,2013-02-09 15:11:00,
2013-02-09 08:21:00,31.0,29.0,29.95,SW,226,11.0,18.0,94,0.00,,,0.00,,2013-02-09 15:21:00,
2013-02-09 08:31:00,31.0,29.0,29.96,SW,236,15.0,19.0,94,0.00,,,0.00,,2013-02-09 15:31:00,
2013-02-09 08:41:00,31.0,29.0,29.96,SW,236,15.0,19.0,94,0.00,,,0.00,,2013-02-09 15:41:00,
2013-02-09 08:52:00,31.0,29.0,29.97,SW,217,13.0,21.0,94,0.00,,,0.00,,2013-02-09 15:52:00,
2013-02-09 09:01:00,31.0,30.0,29.98,West,276,13.0,19.0,95,0.00,,,0.00,,2013-02-09 16:01:00,
2013-02-09 09:11:00,31.0,30.0,29.98,West,276,13.0,19.0,95,0.00,,,0.00,,2013-02-09 16:11:00,
2013-02-09 09:21:00,31.0,30.0,29.98,WSW,240,13.0,17.0,95,0.00,,,0.00,,2013-02-09 16:21:00,
2013-02-09 09:31:00,31.0,30.0,29.99,WSW,245,12.0,20.0,95,0.00,,,0.00,,2013-02-09 16:31:00,
2013-02-09 09:41:00,31.0,30.0,29.99,WSW,245,12.0,20.0,95,0.00,,,0.00,,2013-02-09 16:41:00,
2013-02-09 09:52:00,31.0,29.0,29.99,WSW,242,15.0,19.0,94,0.00,,,0.00,,2013-02-09 16:52:00,
2013-02-09 10:01:00,32.0,30.0,30.00,WSW,242,14.0,18.0,94,0.00,,,0.00,,2013-02-09 17:01:00,
2013-02-09 10:11:00,32.0,30.0,30.00,WSW,242,14.0,18.0,94,0.00,,,0.00,,2013-02-09 17:11:00,
2013-02-09 10:21:00,32.0,30.0,30.01,WSW,238,14.0,18.0,94,0.00,,,0.00,,2013-02-09 17:21:00,
2013-02-09 10:31:00,33.0,31.0,30.01,WSW,240,10.0,15.0,93,0.00,,,0.00,,2013-02-09 17:31:00,
2013-02-09 10:41:00,33.0,31.0,30.01,WSW,240,10.0,15.0,93,0.00,,,0.00,,2013-02-09 17:41:00,
2013-02-09 10:52:00,34.0,31.0,30.03,WSW,248,17.0,21.0,90,0.00,,,0.00,,2013-02-09 17:52:00,
2013-02-09 11:01:00,34.0,31.0,30.03,SSW,201,12.0,18.0,90,0.00,,,0.00,,2013-02-09 18:01:00,
2013-02-09 11:11:00,34.0,31.0,30.03,SSW,201,12.0,18.0,90,0.00,,,0.00,,2013-02-09 18:11:00,
2013-02-09 11:23:00,35.0,29.0,30.03,SSW,212,15.0,20.0,79,0.00,,,0.00,,2013-02-09 18:23:00,
2013-02-09 11:31:00,36.0,27.0,30.03,SW,222,13.0,18.0,70,0.00,,,0.00,,2013-02-09 18:31:00,
2013-02-09 11:41:00,36.0,27.0,30.03,SW,222,13.0,18.0,70,0.00,,,0.00,,2013-02-09 18:41:00,
2013-02-09 11:52:00,37.0,28.0,30.03,SW,228,11.0,23.0,71,0.00,,,0.00,,2013-02-09 18:52:00,
2013-02-09 12:01:00,38.0,28.0,30.03,SW,221,13.0,22.0,68,0.00,,,0.00,,2013-02-09 19:01:00,
2013-02-09 12:11:00,38.0,28.0,30.03,SW,221,13.0,22.0,68,0.00,,,0.00,,2013-02-09 19:11:00,
2013-02-09 12:21:00,38.0,26.0,30.03,SSW,195,14.0,22.0,62,0.00,,,0.00,,2013-02-09 19:21:00,
2013-02-09 12:31:00,38.0,26.0,30.03,South,174,13.0,21.0,61,0.00,,,0.00,,2013-02-09 19:31:00,
2013-02-09 12:41:00,38.0,26.0,30.03,South,174,13.0,21.0,61,0.00,,,0.00,,2013-02-09 19:41:00,
2013-02-09 12:52:00,39.0,25.0,30.03,West,259,13.0,22.0,57,0.00,,,0.00,,2013-02-09 19:52:00,
2013-02-09 13:01:00,40.0,26.0,30.03,SSW,198,11.0,22.0,56,0.00,,,0.00,,2013-02-09 20:01:00,
2013-02-09 13:11:00,40.0,26.0,30.03,SSW,198,11.0,22.0,56,0.00,,,0.00,,2013-02-09 20:11:00,
2013-02-09 13:21:00,40.0,24.0,30.03,South,177,13.0,19.0,52,0.00,,,0.00,,2013-02-09 20:21:00,
2013-02-09 13:31:00,41.0,24.0,30.02,SW,231,15.0,22.0,50,0.00,,,0.00,,2013-02-09 20:31:00,
2013-02-09 13:41:00,41.0,24.0,30.02,SW,231,15.0,22.0,50,0.00,,,0.00,,2013-02-09 20:41:00,
2013-02-09 13:52:00,41.0,22.0,30.02,WNW,301,11.0,28.0,47,0.00,,,0.00,,2013-02-09 20:52:00,
2013-02-09 14:01:00,41.0,24.0,30.02,WSW,244,14.0,23.0,50,0.00,,,0.00,,2013-02-09 21:01:00,
2013-02-09 14:11:00,41.0,24.0,30.02,WSW,244,14.0,23.0,50,0.00,,,0.00,,2013-02-09 21:11:00,
2013-02-09 14:21:00,42.0,25.0,30.01,WSW,240,15.0,25.0,50,0.00,,,0.00,,2013-02-09 21:21:00,
2013-02-09 14:31:00,42.0,24.0,30.01,SW,222,16.0,23.0,48,0.00,,,0.00,,2013-02-09 21:31:00,
2013-02-09 14:41:00,42.0,24.0,30.01,SW,222,16.0,23.0,48,0.00,,,0.00,,2013-02-09 21:41:00,
2013-02-09 14:52:00,42.0,27.0,30.00,SW,232,15.0,21.0,56,0.00,,,0.00,,2013-02-09 21:52:00,
2013-02-09 15:01:00,42.0,27.0,30.00,SW,225,18.0,26.0,56,0.00,,,0.00,,2013-02-09 22:01:00,
2013-02-09 15:11:00,42.0,27.0,30.00,SW,225,18.0,26.0,56,0.00,,,0.00,,2013-02-09 22:11:00,
2013-02-09 15:21:00,42.0,28.0,30.01,WSW,240,13.0,24.0,57,0.00,,,0.00,,2013-02-09 22:21:00,
2013-02-09 15:31:00,42.0,27.0,30.01,WSW,240,11.0,23.0,54,0.00,,,0.00,,2013-02-09 22:31:00,
2013-02-09 15:41:00,42.0,27.0,30.01,WSW,240,11.0,23.0,54,0.00,,,0.00,,2013-02-09 22:41:00,
2013-02-09 15:52:00,42.0,26.0,30.01,SW,231,11.0,16.0,52,0.00,,,0.00,,2013-02-09 22:52:00,
2013-02-09 16:01:00,42.0,26.0,30.01,West,280,8.0,16.0,52,0.00,,,0.00,,2013-02-09 23:01:00,
2013-02-09 16:11:00,42.0,26.0,30.01,West,280,8.0,16.0,52,0.00,,,0.00,,2013-02-09 23:11:00,
2013-02-09 16:21:00,43.0,26.0,30.01,West,259,8.0,18.0,50,0.00,,,0.00,,2013-02-09 23:21:00,
2013-02-09 16:31:00,42.0,25.0,30.01,WSW,242,11.0,17.0,51,0.00,,,0.00,,2013-02-09 23:31:00,
2013-02-09 16:41:00,42.0,25.0,30.01,WSW,242,11.0,17.0,51,0.00,,,0.00,,2013-02-09 23:41:00,
2013-02-09 16:52:00,42.0,24.0,30.02,West,275,11.0,19.0,49,0.00,,,0.00,,2013-02-09 23:52:00,
2013-02-09 17:02:00,41.0,24.0,30.02,WSW,246,11.0,16.0,50,0.00,,,0.00,,2013-02-10 00:02:00,
2013-02-09 17:11:00,41.0,24.0,30.02,WSW,246,11.0,16.0,50,0.00,,,0.00,,2013-02-10 00:11:00,
2013-02-09 17:21:00,42.0,23.0,30.03,WSW,252,9.0,18.0,46,0.00,,,0.00,,2013-02-10 00:21:00,
2013-02-09 17:31:00,42.0,22.0,30.03,SW,229,10.0,17.0,45,0.00,,,0.00,,2013-02-10 00:31:00,
2013-02-09 17:41:00,42.0,22.0,30.03,SW,229,10.0,17.0,45,0.00,,,0.00,,2013-02-10 00:41:00,
2013-02-09 17:52:00,42.0,22.0,30.03,West,259,8.0,16.0,44,0.00,,,0.00,,2013-02-10 00:52:00,
2013-02-09 18:01:00,41.0,21.0,30.03,WSW,244,11.0,17.0,44,0.00,,,0.00,,2013-02-10 01:01:00,
2013-02-09 18:11:00,41.0,21.0,30.03,WSW,244,11.0,17.0,44,0.00,,,0.00,,2013-02-10 01:11:00,
2013-02-09 18:21:00,41.0,22.0,30.04,West,278,10.0,17.0,47,0.00,,,0.00,,2013-02-10 01:21:00,
2013-02-09 18:31:00,40.0,22.0,30.04,WSW,257,10.0,15.0,49,0.00,,,0.00,,2013-02-10 01:31:00,
2013-02-09 18:41:00,40.0,22.0,30.04,WSW,257,10.0,15.0,49,0.00,,,0.00,,2013-02-10 01:41:00,
2013-02-09 18:51:00,39.0,22.0,30.05,WSW,244,7.0,9.0,50,0.00,,,0.00,,2013-02-10 01:51:00,
2013-02-09 19:01:00,39.0,22.0,30.05,SW,232,5.0,8.0,51,0.00,,,0.00,,2013-02-10 02:01:00,
2013-02-09 19:11:00,39.0,22.0,30.05,SW,232,5.0,8.0,51,0.00,,,0.00,,2013-02-10 02:11:00,
2013-02-09 19:21:00,38.0,23.0,30.05,WSW,257,5.0,8.0,54,0.00,,,0.00,,2013-02-10 02:21:00,
2013-02-09 19:31:00,38.0,23.0,30.06,SSW,207,5.0,8.0,54,0.00,,,0.00,,2013-02-10 02:31:00,
2013-02-09 19:41:00,38.0,23.0,30.06,SSW,207,5.0,8.0,54,0.00,,,0.00,,2013-02-10 02:41:00,
2013-02-09 19:52:00,38.0,23.0,30.07,West,280,0.0,2.0,55,0.00,,,0.00,,2013-02-10 02:52:00,
2013-02-09 20:01:00,37.0,22.0,30.07,WNW,285,1.0,1.0,55,0.00,,,0.00,,2013-02-10 03:01:00,
2013-02-09 20:11:00,37.0,22.0,30.07,WNW,285,1.0,1.0,55,0.00,,,0.00,,2013-02-10 03:11:00,
2013-02-09 20:21:00,37.0,22.0,30.07,SW,229,4.0,5.0,55,0.00,,,0.00,,2013-02-10 03:21:00,
2013-02-09 20:31:00,36.0,23.0,30.07,WSW,242,5.0,6.0,58,0.00,,,0.00,,2013-02-10 03:31:00,
2013-02-09 20:41:00,36.0,23.0,30.07,WSW,242,5.0,6.0,58,0.00,,,0.00,,2013-02-10 03:41:00,
2013-02-09 20:52:00,36.0,23.0,30.08,WSW,238,5.0,8.0,59,0.00,,,0.00,,2013-02-10 03:52:00,
2013-02-09 21:01:00,36.0,23.0,30.09,SW,214,1.0,5.0,59,0.00,,,0.00,,2013-02-10 04:01:00,
2013-02-09 21:11:00,36.0,23.0,30.09,SW,214,1.0,5.0,59,0.00,,,0.00,,2013-02-10 04:11:00,
2013-02-09 21:21:00,36.0,23.0,30.09,SSE,159,1.0,3.0,59,0.00,,,0.00,,2013-02-10 04:21:00,
2013-02-09 21:31:00,35.0,23.0,30.09,SSE,156,0.0,4.0,62,0.00,,,0.00,,2013-02-10 04:31:00,
2013-02-09 21:41:00,35.0,23.0,30.09,SSE,156,0.0,4.0,62,0.00,,,0.00,,2013-02-10 04:41:00,
2013-02-09 21:52:00,34.0,23.0,30.09,SW,218,3.0,6.0,64,0.00,,,0.00,,2013-02-10 04:52:00,
2013-02-09 22:01:00,34.0,22.0,30.09,SW,214,3.0,6.0,61,0.00,,,0.00,,2013-02-10 05:01:00,
2013-02-09 22:11:00,34.0,22.0,30.09,SW,214,3.0,6.0,61,0.00,,,0.00,,2013-02-10 05:11:00,
2013-02-09 22:22:00,33.0,22.0,30.10,SE,138,3.0,3.0,64,0.00,,,0.00,,2013-02-10 05:22:00,
2013-02-09 22:31:00,32.0,23.0,30.10,South,173,3.0,7.0,68,0.00,,,0.00,,2013-02-10 05:31:00,
2013-02-09 22:41:00,32.0,23.0,30.10,South,173,3.0,7.0,68,0.00,,,0.00,,2013-02-10 05:41:00,
2013-02-09 22:52:00,33.0,23.0,30.10,South,179,2.0,4.0,67,0.00,,,0.00,,2013-02-10 05:52:00,
2013-02-09 23:01:00,32.0,23.0,30.11,SSE,158,1.0,3.0,68,0.00,,,0.00,,2013-02-10 06:01:00,
2013-02-09 23:11:00,32.0,23.0,30.11,SSE,158,1.0,3.0,68,0.00,,,0.00,,2013-02-10 06:11:00,
2013-02-09 23:21:00,32.0,23.0,30.11,SE,137,4.0,5.0,68,0.00,,,0.00,,2013-02-10 06:21:00,
2013-02-09 23:31:00,31.0,23.0,30.11,SSW,194,1.0,5.0,71,0.00,,,0.00,,2013-02-10 06:31:00,
2013-02-09 23:42:00,31.0,23.0,30.11,SSW,194,1.0,5.0,71,0.00,,,0.00,,2013-02-10 06:42:00,
2013-02-09 23:52:00,32.0,23.0,30.11,SSE,158,1.0,3.0,69,0.00,,,0.00,,2013-02-10 06:52:00,